Time,TemperatureF,DewpointF,PressureIn,WindDirection,WindDirectionDegrees,WindSpeedMPH,WindSpeedGustMPH,Humidity,HourlyPrecipIn,Conditions,Clouds,dailyrainin,SoftwareType,DateUTC
2013-03-04 00:00:00,55.6,18.3,31.96,WNW,292,0.0,0.0,23,0.00,CLR,SKC,0.00,WeatherDisplay:10.37,2013-03-04 07:00:00,
2013-03-04 00:05:00,55.2,19.0,31.95,NW,315,8.1,8.1,24,0.00,CLR,SKC,0.00,WeatherDisplay:10.37,2013-03-04 07:05:00,
2013-03-04 00:10:00,55.0,19.8,31.89,WNW,292,3.5,3.5,25,0.00,CLR,SKC,0.00,WeatherDisplay:10.37,2013-03-04 07:10:00,
2013-03-04 00:15:00,54.7,19.5,31.89,WNW,292,0.0,0.0,25,0.00,CLR,SKC,0.00,WeatherDisplay:10.37,2013-03-04 07:15:00,
2013-03-04 00:20:00,54.5,19.3,31.89,WNW,292,0.0,0.0,25,0.00,CLR,SKC,0.00,WeatherDisplay:10.37,2013-03-04 07:20:00,
2013-03-04 00:25:00,54.3,19.2,31.95,West,270,0.0,0.0,25,0.00,CLR,SKC,0.00,WeatherDisplay:10.37,2013-03-04 07:25:00,
2013-03-04 00:30:00,54.3,19.2,31.96,NE,45,4.6,4.6,25,0.00,CLR,SKC,0.00,WeatherDisplay:10.37,2013-03-04 07:30:00,
2013-03-04 00:35:00,54.5,19.3,31.89,WNW,292,2.0,0.0,25,0.00,CLR,SKC,0.00,WeatherDisplay:10.37,2013-03-04 07:35:00,
2013-03-04 00:40:00,54.3,19.2,31.89,WNW,292,0.0,0.0,25,0.00,CLR,SKC,0.00,WeatherDisplay:10.37,2013-03-04 07:40:00,
2013-03-04 00:45:00,54.5,19.3,31.95,West,270,0.0,0.0,25,0.00,CLR,SKC,0.00,WeatherDisplay:10.37,2013-03-04 07:45:00,
2013-03-04 00:50:00,54.5,20.3,31.94,SE,135,0.0,0.0,26,0.00,CLR,SKC,0.00,WeatherDisplay:10.37,2013-03-04 07:50:00,
2013-03-04 00:55:00,54.3,21.0,31.89,ENE,68,8.1,8.1,27,0.00,CLR,SKC,0.00,WeatherDisplay:10.37,2013-03-04 07:55:00,
2013-03-04 01:00:00,54.3,21.0,31.95,SW,225,5.8,5.8,27,0.00,CLR,SKC,0.00,WeatherDisplay:10.37,2013-03-04 08:00:00,
2013-03-04 01:05:00,54.5,21.2,31.95,East,90,2.3,0.0,27,0.00,CLR,SKC,0.00,WeatherDisplay:10.37,2013-03-04 08:05:00,
2013-03-04 01:10:00,54.3,21.0,31.94,East,90,0.0,0.0,27,0.00,CLR,SKC,0.00,WeatherDisplay:10.37,2013-03-04 08:10:00,
2013-03-04 01:15:00,54.3,20.1,31.89,East,90,0.0,0.0,26,0.00,CLR,SKC,0.00,WeatherDisplay:10.37,2013-03-04 08:15:00,
2013-03-04 01:20:00,54.3,20.1,31.95,WSW,248,0.0,0.0,26,0.00,CLR,SKC,0.00,WeatherDisplay:10.37,2013-03-04 08:20:00,
2013-03-04 01:25:00,54.1,20.8,31.94,SE,135,0.0,0.0,27,0.00,CLR,SKC,0.00,WeatherDisplay:10.37,2013-03-04 08:25:00,
2013-03-04 01:30:00,53.8,20.5,31.94,South,180,0.0,0.0,27,0.00,CLR,SKC,0.00,WeatherDisplay:10.37,2013-03-04 08:30:00,
2013-03-04 01:35:00,53.4,20.2,31.89,South,180,0.0,0.0,27,0.00,CLR,SKC,0.00,WeatherDisplay:10.37,2013-03-04 08:35:00,
2013-03-04 01:40:00,53.2,20.1,31.94,WSW,248,2.3,2.3,27,0.00,CLR,SKC,0.00,WeatherDisplay:10.37,2013-03-04 08:40:00,
2013-03-04 01:45:00,52.9,20.6,31.94,NW,315,0.0,0.0,28,0.00,CLR,SKC,0.00,WeatherDisplay:10.37,2013-03-04 08:45:00,
2013-03-04 01:50:00,52.5,20.3,31.94,NW,315,0.0,0.0,28,0.00,CLR,SKC,0.00,WeatherDisplay:10.37,2013-03-04 08:50:00,
2013-03-04 01:55:00,52.3,20.2,31.89,WSW,248,4.9,4.9,28,0.00,CLR,SKC,0.00,WeatherDisplay:10.37,2013-03-04 08:55:00,
2013-03-04 02:00:00,52.3,19.3,31.94,ESE,112,0.0,0.0,27,0.00,CLR,SKC,0.00,WeatherDisplay:10.37,2013-03-04 09:00:00,
2013-03-04 02:05:00,52.3,20.2,31.93,SW,225,4.6,4.6,28,0.00,CLR,SKC,0.00,WeatherDisplay:10.37,2013-03-04 09:05:00,
2013-03-04 02:10:00,52.3,20.2,31.89,SW,225,5.8,5.8,28,0.00,CLR,SKC,0.00,WeatherDisplay:10.37,2013-03-04 09:10:00,
2013-03-04 02:15:00,52.3,21.0,31.94,WNW,292,0.0,0.0,29,0.00,CLR,SKC,0.00,WeatherDisplay:10.37,2013-03-04 09:15:00,
2013-03-04 02:20:00,52.2,20.8,31.94,SW,225,0.0,0.0,29,0.00,CLR,SKC,0.00,WeatherDisplay:10.37,2013-03-04 09:20:00,
2013-03-04 02:25:00,52.0,20.7,31.94,SW,225,0.0,0.0,29,0.00,CLR,SKC,0.00,WeatherDisplay:10.37,2013-03-04 09:25:00,
2013-03-04 02:30:00,52.0,20.7,31.89,SW,225,0.0,0.0,29,0.00,CLR,SKC,0.00,WeatherDisplay:10.37,2013-03-04 09:30:00,
2013-03-04 02:35:00,51.8,20.5,31.93,SW,225,0.0,0.0,29,0.00,CLR,SKC,0.00,WeatherDisplay:10.37,2013-03-04 09:35:00,
2013-03-04 02:40:00,52.0,20.7,31.93,SW,225,0.0,0.0,29,0.00,CLR,SKC,0.00,WeatherDisplay:10.37,2013-03-04 09:40:00,
2013-03-04 02:45:00,51.8,21.3,31.93,WSW,248,3.5,3.5,30,0.00,CLR,SKC,0.00,WeatherDisplay:10.37,2013-03-04 09:45:00,
2013-03-04 02:50:00,51.6,21.9,31.93,ENE,68,0.0,0.0,31,0.00,CLR,SKC,0.00,WeatherDisplay:10.37,2013-03-04 09:50:00,
2013-03-04 02:55:00,51.4,21.0,31.92,WNW,292,0.0,0.0,30,0.00,CLR,SKC,0.00,WeatherDisplay:10.37,2013-03-04 09:55:00,
2013-03-04 03:00:00,51.4,21.0,31.92,WSW,248,1.2,1.2,30,0.00,CLR,SKC,0.00,WeatherDisplay:10.37,2013-03-04 10:00:00,
2013-03-04 03:05:00,51.6,21.2,31.92,WSW,248,4.6,4.6,30,0.00,CLR,SKC,0.00,WeatherDisplay:10.37,2013-03-04 10:05:00,
2013-03-04 03:10:00,51.6,20.4,31.89,WSW,248,0.0,0.0,29,0.00,CLR,SKC,0.00,WeatherDisplay:10.37,2013-03-04 10:10:00,
2013-03-04 03:15:00,51.8,20.5,31.92,WSW,248,0.0,0.0,29,0.00,CLR,SKC,0.00,WeatherDisplay:10.37,2013-03-04 10:15:00,
2013-03-04 03:20:00,52.0,20.7,31.92,WSW,248,0.0,0.0,29,0.00,CLR,SKC,0.00,WeatherDisplay:10.37,2013-03-04 10:20:00,
2013-03-04 03:25:00,52.0,22.2,31.92,WSW,248,0.0,0.0,31,0.00,CLR,SKC,0.00,WeatherDisplay:10.37,2013-03-04 10:25:00,
2013-03-04 03:30:00,52.0,23.0,31.92,WSW,248,0.0,0.0,32,0.00,CLR,SKC,0.00,WeatherDisplay:10.37,2013-03-04 10:30:00,
2013-03-04 03:35:00,52.2,23.2,31.92,SSW,202,0.0,0.0,32,0.00,CLR,SKC,0.00,WeatherDisplay:10.37,2013-03-04 10:35:00,
2013-03-04 03:40:00,52.2,23.2,31.92,SSW,202,0.0,0.0,32,0.00,CLR,SKC,0.00,WeatherDisplay:10.37,2013-03-04 10:40:00,
2013-03-04 03:45:00,52.0,23.7,31.92,SE,135,0.0,0.0,33,0.00,CLR,SKC,0.00,WeatherDisplay:10.37,2013-03-04 10:45:00,
2013-03-04 03:50:00,52.0,23.7,31.92,SE,135,0.0,0.0,33,0.00,CLR,SKC,0.00,WeatherDisplay:10.37,2013-03-04 10:50:00,
2013-03-04 03:55:00,51.6,24.1,31.92,WSW,248,0.0,0.0,34,0.00,CLR,SKC,0.00,WeatherDisplay:10.37,2013-03-04 10:55:00,
2013-03-04 04:00:00,51.1,23.7,31.92,SW,225,10.4,10.4,34,0.00,CLR,SKC,0.00,WeatherDisplay:10.37,2013-03-04 11:00:00,
2013-03-04 04:05:00,51.3,25.2,31.89,West,270,6.9,6.9,36,0.00,CLR,SKC,0.00,WeatherDisplay:10.37,2013-03-04 11:05:00,
2013-03-04 04:10:00,51.3,25.8,31.92,NW,315,0.0,0.0,37,0.00,CLR,SKC,0.00,WeatherDisplay:10.37,2013-03-04 11:10:00,
2013-03-04 04:15:00,50.9,24.9,31.92,NW,315,0.0,0.0,36,0.00,CLR,SKC,0.00,WeatherDisplay:10.37,2013-03-04 11:15:00,
2013-03-04 04:20:00,50.9,26.2,31.89,West,270,0.0,0.0,38,0.00,CLR,SKC,0.00,WeatherDisplay:10.37,2013-03-04 11:20:00,
2013-03-04 04:25:00,50.7,27.2,31.92,West,270,0.0,0.0,40,0.00,CLR,SKC,0.00,WeatherDisplay:10.37,2013-03-04 11:25:00,
2013-03-04 04:30:00,50.5,27.7,31.92,WNW,292,8.1,8.1,41,0.00,CLR,SKC,0.00,WeatherDisplay:10.37,2013-03-04 11:30:00,
2013-03-04 04:35:00,50.2,27.9,31.91,WNW,292,6.9,6.9,42,0.00,CLR,SKC,0.00,WeatherDisplay:10.37,2013-03-04 11:35:00,
2013-03-04 04:40:00,49.8,27.6,31.92,NNW,338,1.2,1.2,42,0.00,CLR,SKC,0.00,WeatherDisplay:10.37,2013-03-04 11:40:00,
2013-03-04 04:45:00,49.8,28.2,31.89,NNW,338,4.6,4.6,43,0.00,CLR,SKC,0.00,WeatherDisplay:10.37,2013-03-04 11:45:00,
2013-03-04 04:50:00,49.6,27.5,31.92,NNW,338,0.0,0.0,42,0.00,CLR,SKC,0.00,WeatherDisplay:10.37,2013-03-04 11:50:00,
2013-03-04 04:55:00,49.8,29.3,31.91,WNW,292,4.9,4.9,45,0.00,CLR,SKC,0.00,WeatherDisplay:10.37,2013-03-04 11:55:00,
2013-03-04 05:00:00,49.6,28.6,31.89,WNW,292,4.6,4.6,44,0.00,CLR,SKC,0.00,WeatherDisplay:10.37,2013-03-04 12:00:00,
2013-03-04 05:05:00,49.8,29.3,31.91,WSW,248,1.2,1.2,45,0.00,CLR,SKC,0.00,WeatherDisplay:10.37,2013-03-04 12:05:00,
2013-03-04 05:10:00,50.2,29.1,31.91,WSW,248,0.0,0.0,44,0.00,CLR,SKC,0.00,WeatherDisplay:10.37,2013-03-04 12:10:00,
2013-03-04 05:15:00,50.4,30.9,31.91,SW,225,6.9,6.9,47,0.00,CLR,SKC,0.00,WeatherDisplay:10.37,2013-03-04 12:15:00,
2013-03-04 05:20:00,50.5,30.5,31.91,SW,225,4.6,4.6,46,0.00,CLR,SKC,0.00,WeatherDisplay:10.37,2013-03-04 12:20:00,
2013-03-04 05:25:00,51.1,29.9,31.91,WSW,248,0.0,0.0,44,0.00,CLR,SKC,0.00,WeatherDisplay:10.37,2013-03-04 12:25:00,
2013-03-04 05:30:00,51.6,28.1,31.91,WSW,248,0.0,0.0,40,0.00,CLR,SKC,0.00,WeatherDisplay:10.37,2013-03-04 12:30:00,
2013-03-04 05:35:00,52.3,28.1,31.91,WSW,248,0.0,0.0,39,0.00,CLR,SKC,0.00,WeatherDisplay:10.37,2013-03-04 12:35:00,
2013-03-04 05:40:00,52.9,28.6,31.91,WSW,248,0.0,0.0,39,0.00,CLR,SKC,0.00,WeatherDisplay:10.37,2013-03-04 12:40:00,
2013-03-04 05:45:00,52.9,27.9,31.91,SSW,202,0.0,0.0,38,0.00,CLR,SKC,0.00,WeatherDisplay:10.37,2013-03-04 12:45:00,
2013-03-04 05:51:00,53.2,28.3,31.91,WSW,248,1.2,0.0,38,0.00,CLR,SKC,0.00,WeatherDisplay:10.37,2013-03-04 12:51:00,
2013-03-04 05:56:00,53.4,27.8,31.91,West,270,0.0,0.0,37,0.00,CLR,SKC,0.00,WeatherDisplay:10.37,2013-03-04 12:56:00,
2013-03-04 06:01:00,53.8,28.1,31.91,NW,315,0.0,0.0,37,0.00,CLR,SKC,0.00,WeatherDisplay:10.37,2013-03-04 13:01:00,
2013-03-04 06:06:00,54.0,28.3,31.91,WNW,292,0.0,0.0,37,0.00,CLR,SKC,0.00,WeatherDisplay:10.37,2013-03-04 13:06:00,
2013-03-04 06:11:00,54.0,28.3,31.89,WSW,248,2.3,2.3,37,0.00,CLR,SKC,0.00,WeatherDisplay:10.37,2013-03-04 13:11:00,
2013-03-04 06:16:00,53.8,28.1,31.91,SSW,202,4.6,4.6,37,0.00,CLR,SKC,0.00,WeatherDisplay:10.37,2013-03-04 13:16:00,
2013-03-04 06:21:00,53.8,28.1,31.91,SSW,202,11.5,11.5,37,0.00,CLR,SKC,0.00,WeatherDisplay:10.37,2013-03-04 13:21:00,
2013-03-04 06:26:00,54.0,28.3,31.90,SW,225,10.4,10.4,37,0.00,CLR,SKC,0.00,WeatherDisplay:10.37,2013-03-04 13:26:00,
2013-03-04 06:31:00,53.8,26.7,31.89,SW,225,9.6,9.6,35,0.00,CLR,SKC,0.00,WeatherDisplay:10.37,2013-03-04 13:31:00,
2013-03-04 06:36:00,53.8,28.1,31.91,WSW,248,10.3,10.3,37,0.00,CLR,SKC,0.00,WeatherDisplay:10.37,2013-03-04 13:36:00,
2013-03-04 06:41:00,53.4,27.8,31.89,SW,225,11.4,11.4,37,0.00,CLR,SKC,0.00,WeatherDisplay:10.37,2013-03-04 13:41:00,
2013-03-04 06:46:00,53.4,26.4,31.89,SW,225,9.2,9.2,35,0.00,CLR,SKC,0.00,WeatherDisplay:10.37,2013-03-04 13:46:00,
2013-03-04 06:51:00,53.4,26.4,31.89,WSW,248,13.8,13.8,35,0.00,CLR,SKC,0.00,WeatherDisplay:10.37,2013-03-04 13:51:00,
2013-03-04 06:56:00,53.2,27.6,31.91,SW,225,10.4,10.4,37,0.00,CLR,SKC,0.00,WeatherDisplay:10.37,2013-03-04 13:56:00,
2013-03-04 07:01:00,53.1,27.4,31.89,SW,225,9.4,9.4,37,0.00,CLR,SKC,0.00,WeatherDisplay:10.37,2013-03-04 14:01:00,
2013-03-04 07:06:00,52.9,25.9,31.92,SSW,202,6.9,6.9,35,0.00,CLR,SKC,0.00,WeatherDisplay:10.37,2013-03-04 14:06:00,
2013-03-04 07:11:00,53.1,25.4,31.92,South,180,4.6,0.0,34,0.00,CLR,SKC,0.00,WeatherDisplay:10.37,2013-03-04 14:11:00,
2013-03-04 07:16:00,53.2,25.6,31.92,WNW,292,0.0,0.0,34,0.00,CLR,SKC,0.00,WeatherDisplay:10.37,2013-03-04 14:16:00,
2013-03-04 07:21:00,53.2,25.6,31.89,South,180,0.0,0.0,34,0.00,CLR,SKC,0.00,WeatherDisplay:10.37,2013-03-04 14:21:00,
2013-03-04 07:26:00,53.2,24.1,31.92,South,180,10.4,10.4,32,0.00,CLR,SKC,0.00,WeatherDisplay:10.37,2013-03-04 14:26:00,
2013-03-04 07:31:00,53.8,23.8,31.92,West,270,4.6,0.0,31,0.00,CLR,SKC,0.00,WeatherDisplay:10.37,2013-03-04 14:31:00,
2013-03-04 07:36:00,53.8,24.6,31.89,NE,45,0.0,0.0,32,0.00,CLR,SKC,0.00,WeatherDisplay:10.37,2013-03-04 14:36:00,
2013-03-04 07:41:00,53.8,24.6,31.89,South,180,4.7,4.7,32,0.00,CLR,SKC,0.00,WeatherDisplay:10.37,2013-03-04 14:41:00,
2013-03-04 07:46:00,53.4,25.0,31.89,SSW,202,0.0,3.6,33,0.00,CLR,SKC,0.00,WeatherDisplay:10.37,2013-03-04 14:46:00,
2013-03-04 07:51:00,54.3,24.3,31.92,SW,225,15.0,15.0,31,0.00,CLR,SKC,0.00,WeatherDisplay:10.37,2013-03-04 14:51:00,
2013-03-04 07:56:00,55.4,24.4,31.93,SSW,202,6.9,6.9,30,0.00,CLR,SKC,0.00,WeatherDisplay:10.37,2013-03-04 14:56:00,
2013-03-04 08:01:00,56.5,25.4,31.92,SSW,202,6.9,6.9,30,0.00,CLR,SKC,0.00,WeatherDisplay:10.37,2013-03-04 15:01:00,
2013-03-04 08:06:00,57.6,26.3,31.89,South,180,0.0,0.1,30,0.00,CLR,SKC,0.00,WeatherDisplay:10.37,2013-03-04 15:06:00,
2013-03-04 08:11:00,58.3,26.1,31.89,WSW,248,0.0,0.0,29,0.00,CLR,SKC,0.00,WeatherDisplay:10.37,2013-03-04 15:11:00,
2013-03-04 08:16:00,58.8,26.6,31.93,ESE,112,6.9,6.9,29,0.00,CLR,SKC,0.00,WeatherDisplay:10.37,2013-03-04 15:16:00,
2013-03-04 08:21:00,58.8,25.7,31.93,South,180,2.3,2.3,28,0.00,CLR,SKC,0.00,WeatherDisplay:10.37,2013-03-04 15:21:00,
2013-03-04 08:26:00,59.5,26.4,31.93,SE,135,3.5,3.5,28,0.00,CLR,SKC,0.00,WeatherDisplay:10.37,2013-03-04 15:26:00,
2013-03-04 08:31:00,60.1,26.0,31.93,ESE,112,9.2,9.2,27,0.00,CLR,SKC,0.00,WeatherDisplay:10.37,2013-03-04 15:31:00,
2013-03-04 08:36:00,60.6,25.5,31.89,ESE,112,13.8,13.9,26,0.00,CLR,SKC,0.00,WeatherDisplay:10.37,2013-03-04 15:36:00,
2013-03-04 08:41:00,61.0,24.9,31.94,East,90,10.4,10.4,25,0.00,CLR,SKC,0.00,WeatherDisplay:10.37,2013-03-04 15:41:00,
2013-03-04 08:46:00,61.5,25.3,31.93,WSW,248,4.6,4.6,25,0.00,CLR,SKC,0.00,WeatherDisplay:10.37,2013-03-04 15:46:00,
2013-03-04 08:51:00,61.9,25.6,31.94,SSW,202,11.5,11.5,25,0.00,CLR,SKC,0.00,WeatherDisplay:10.37,2013-03-04 15:51:00,
2013-03-04 08:56:00,62.8,25.4,31.89,WSW,248,6.7,6.7,24,0.00,CLR,SKC,0.00,WeatherDisplay:10.37,2013-03-04 15:56:00,
2013-03-04 09:01:00,64.0,26.5,31.94,SSE,158,5.8,5.8,24,0.00,CLR,SKC,0.00,WeatherDisplay:10.37,2013-03-04 16:01:00,
2013-03-04 09:06:00,64.8,26.1,31.89,ESE,112,8.1,8.1,23,0.00,CLR,SKC,0.00,WeatherDisplay:10.37,2013-03-04 16:06:00,
2013-03-04 09:11:00,65.5,26.7,31.89,WSW,248,3.5,3.5,23,0.00,CLR,SKC,0.00,WeatherDisplay:10.37,2013-03-04 16:11:00,
2013-03-04 09:16:00,66.4,27.4,31.93,WSW,248,5.8,5.8,23,0.00,CLR,SKC,0.00,WeatherDisplay:10.37,2013-03-04 16:16:00,
2013-03-04 09:21:00,67.3,28.2,31.93,ESE,112,15.0,15.0,23,0.00,CLR,SKC,0.00,WeatherDisplay:10.37,2013-03-04 16:21:00,
2013-03-04 09:26:00,67.8,27.6,31.93,WSW,248,10.9,10.9,22,0.00,CLR,SKC,0.00,WeatherDisplay:10.37,2013-03-04 16:26:00,
2013-03-04 09:31:00,68.5,28.2,31.89,WSW,248,17.3,17.3,22,0.00,CLR,SKC,0.00,WeatherDisplay:10.37,2013-03-04 16:31:00,
2013-03-04 09:36:00,68.7,28.3,31.92,WSW,248,13.8,13.8,22,0.00,CLR,SKC,0.00,WeatherDisplay:10.37,2013-03-04 16:36:00,
2013-03-04 09:41:00,68.7,28.3,31.92,ESE,112,13.8,13.8,22,0.00,CLR,SKC,0.00,WeatherDisplay:10.37,2013-03-04 16:41:00,
2013-03-04 09:46:00,69.1,27.5,31.92,ESE,112,15.0,15.0,21,0.00,CLR,SKC,0.00,WeatherDisplay:10.37,2013-03-04 16:46:00,
2013-03-04 09:51:00,69.3,27.6,31.92,ESE,112,18.5,18.5,21,0.00,CLR,SKC,0.00,WeatherDisplay:10.37,2013-03-04 16:51:00,
2013-03-04 09:56:00,68.7,26.0,31.89,SE,135,11.5,11.5,20,0.00,CLR,SKC,0.00,WeatherDisplay:10.37,2013-03-04 16:56:00,
2013-03-04 10:01:00,68.9,26.1,31.92,ESE,112,23.0,23.0,20,0.00,CLR,SKC,0.00,WeatherDisplay:10.37,2013-03-04 17:01:00,
2013-03-04 10:06:00,69.4,27.8,31.89,ESE,112,15.0,15.0,21,0.00,CLR,SKC,0.00,WeatherDisplay:10.37,2013-03-04 17:06:00,
2013-03-04 10:11:00,69.6,27.9,31.93,ESE,112,15.0,15.0,21,0.00,CLR,SKC,0.00,WeatherDisplay:10.37,2013-03-04 17:11:00,
2013-03-04 10:16:00,69.8,28.1,31.93,ESE,112,23.2,23.2,21,0.00,,SKC,0.00,WeatherDisplay:10.37,2013-03-04 17:16:00,
2013-03-04 10:21:00,69.8,25.6,31.93,ESE,112,27.5,27.5,19,0.00,CLR,SKC,0.00,WeatherDisplay:10.37,2013-03-04 17:21:00,
2013-03-04 10:26:00,69.8,25.6,31.92,SE,135,27.6,27.6,19,0.00,CLR,SKC,0.00,WeatherDisplay:10.37,2013-03-04 17:26:00,
2013-03-04 10:31:00,69.6,25.5,31.92,ESE,112,21.9,21.9,19,0.00,,SKC,0.00,WeatherDisplay:10.37,2013-03-04 17:31:00,
2013-03-04 10:36:00,70.0,25.8,31.92,SE,135,21.9,21.9,19,0.00,CLR,SKC,0.00,WeatherDisplay:10.37,2013-03-04 17:36:00,
2013-03-04 10:41:00,70.5,26.2,31.89,SE,135,21.9,21.9,19,0.00,CLR,SKC,0.00,WeatherDisplay:10.37,2013-03-04 17:41:00,
2013-03-04 10:46:00,70.9,26.5,31.93,ESE,112,20.7,20.7,19,0.00,,SKC,0.00,WeatherDisplay:10.37,2013-03-04 17:46:00,
2013-03-04 10:51:00,71.1,26.7,31.93,ESE,112,22.6,22.6,19,0.00,CLR,SKC,0.00,WeatherDisplay:10.37,2013-03-04 17:51:00,
2013-03-04 10:56:00,71.4,27.0,31.89,ESE,112,28.8,28.8,19,0.00,,SKC,0.00,WeatherDisplay:10.37,2013-03-04 17:56:00,
2013-03-04 11:01:00,71.8,27.3,31.93,ESE,112,24.2,24.2,19,0.00,,SKC,0.00,WeatherDisplay:10.37,2013-03-04 18:01:00,
2013-03-04 11:06:00,72.1,26.3,31.93,ESE,112,25.0,25.0,18,0.00,CLR,SKC,0.00,WeatherDisplay:10.37,2013-03-04 18:06:00,
2013-03-04 11:11:00,72.0,26.1,31.89,ESE,112,12.7,12.7,18,0.00,CLR,SKC,0.00,WeatherDisplay:10.37,2013-03-04 18:11:00,
2013-03-04 11:16:00,71.8,26.0,31.93,ESE,112,35.7,35.7,18,0.00,,SKC,0.00,WeatherDisplay:10.37,2013-03-04 18:16:00,
2013-03-04 11:21:00,71.8,27.3,31.94,ESE,112,32.0,32.0,19,0.00,CLR,SKC,0.00,WeatherDisplay:10.37,2013-03-04 18:21:00,
2013-03-04 11:26:00,70.2,25.9,31.94,ENE,68,31.1,31.1,19,0.00,,SKC,0.00,WeatherDisplay:10.37,2013-03-04 18:26:00,
2013-03-04 11:30:00,69.4,27.8,31.89,East,90,35.7,35.7,21,0.00,,SKC,0.00,WeatherDisplay:10.37,2013-03-04 18:30:00,
2013-03-04 11:35:00,68.7,26.0,31.94,ESE,112,26.5,26.5,20,0.00,CLR,SKC,0.00,WeatherDisplay:10.37,2013-03-04 18:35:00,
2013-03-04 11:40:00,69.3,28.8,31.89,SE,135,26.5,26.5,22,0.00,,SKC,0.00,WeatherDisplay:10.37,2013-03-04 18:40:00,
2013-03-04 11:45:00,69.4,28.9,31.95,ESE,112,19.6,19.6,22,0.00,CLR,SKC,0.00,WeatherDisplay:10.37,2013-03-04 18:45:00,
2013-03-04 11:50:00,70.3,29.7,31.94,SSE,158,10.4,10.4,22,0.00,CLR,SKC,0.00,WeatherDisplay:10.37,2013-03-04 18:50:00,
2013-03-04 11:55:00,70.9,29.0,31.89,East,90,24.2,24.2,21,0.00,CLR,SKC,0.00,WeatherDisplay:10.37,2013-03-04 18:55:00,
2013-03-04 12:00:00,70.3,29.7,31.89,ESE,112,16.1,16.1,22,0.00,CLR,SKC,0.00,WeatherDisplay:10.37,2013-03-04 19:00:00,
2013-03-04 12:05:00,71.4,30.6,31.94,ESE,112,10.4,10.4,22,0.00,CLR,SKC,0.00,WeatherDisplay:10.37,2013-03-04 19:05:00,
2013-03-04 12:10:00,71.4,29.4,31.94,ENE,68,18.4,18.4,21,0.00,,SKC,0.00,WeatherDisplay:10.37,2013-03-04 19:10:00,
2013-03-04 12:15:00,70.5,29.8,31.89,ESE,112,21.9,21.9,22,0.00,CLR,SKC,0.00,WeatherDisplay:10.37,2013-03-04 19:15:00,
2013-03-04 12:20:00,71.2,30.4,31.89,ESE,112,9.2,9.2,22,0.00,CLR,SKC,0.00,WeatherDisplay:10.37,2013-03-04 19:20:00,
2013-03-04 12:25:00,71.4,29.4,31.92,East,90,23.0,23.0,21,0.00,CLR,SKC,0.00,WeatherDisplay:10.37,2013-03-04 19:25:00,
2013-03-04 12:30:00,71.4,30.6,31.89,SE,135,27.6,27.6,22,0.00,CLR,SKC,0.00,WeatherDisplay:10.37,2013-03-04 19:30:00,
2013-03-04 12:35:00,72.1,31.2,31.92,East,90,20.7,20.7,22,0.00,CLR,SKC,0.00,WeatherDisplay:10.37,2013-03-04 19:35:00,
2013-03-04 12:40:00,72.0,29.9,31.89,ESE,112,23.0,23.0,21,0.00,,SKC,0.00,WeatherDisplay:10.37,2013-03-04 19:40:00,
2013-03-04 12:45:00,72.5,31.5,31.92,ESE,112,21.7,21.7,22,0.00,CLR,SKC,0.00,WeatherDisplay:10.37,2013-03-04 19:45:00,
2013-03-04 12:50:00,73.0,30.8,31.92,ESE,112,31.1,31.1,21,0.00,,SKC,0.00,WeatherDisplay:10.37,2013-03-04 19:50:00,
2013-03-04 12:55:00,73.4,31.1,31.91,ESE,112,25.3,25.3,21,0.00,,SKC,0.00,WeatherDisplay:10.37,2013-03-04 19:55:00,
2013-03-04 13:00:00,73.2,30.9,31.91,East,90,28.8,28.8,21,0.00,,SKC,0.00,WeatherDisplay:10.37,2013-03-04 20:00:00,
2013-03-04 13:05:00,72.5,30.3,31.91,East,90,18.4,18.4,21,0.00,CLR,SKC,0.00,WeatherDisplay:10.37,2013-03-04 20:05:00,
2013-03-04 13:10:00,72.1,31.2,31.91,East,90,33.1,33.1,22,0.00,CLR,SKC,0.00,WeatherDisplay:10.37,2013-03-04 20:10:00,
2013-03-04 13:15:00,72.3,30.2,31.89,East,90,25.3,25.3,21,0.00,,SKC,0.00,WeatherDisplay:10.37,2013-03-04 20:15:00,
2013-03-04 13:20:00,72.9,30.6,31.90,ESE,112,26.5,26.5,21,0.00,,SKC,0.00,WeatherDisplay:10.37,2013-03-04 20:20:00,
2013-03-04 13:25:00,73.0,30.8,31.89,ESE,112,34.5,34.5,21,0.00,,SKC,0.00,WeatherDisplay:10.37,2013-03-04 20:25:00,
2013-03-04 13:30:00,72.7,31.6,31.89,SE,135,28.8,28.8,22,0.00,,SKC,0.00,WeatherDisplay:10.37,2013-03-04 20:30:00,
2013-03-04 13:35:00,72.7,30.5,31.90,East,90,29.9,29.9,21,0.00,,SKC,0.00,WeatherDisplay:10.37,2013-03-04 20:35:00,
2013-03-04 13:40:00,72.7,31.6,31.90,ESE,112,33.4,33.4,22,0.00,,SKC,0.00,WeatherDisplay:10.37,2013-03-04 20:40:00,
2013-03-04 13:45:00,72.7,31.6,31.89,East,90,27.6,27.6,22,0.00,,SKC,0.00,WeatherDisplay:10.37,2013-03-04 20:45:00,
2013-03-04 13:50:00,72.7,31.6,31.89,East,90,35.7,35.7,22,0.00,,SKC,0.00,WeatherDisplay:10.37,2013-03-04 20:50:00,
2013-03-04 13:55:00,72.9,31.8,31.90,ESE,112,31.1,31.1,22,0.00,,SKC,0.00,WeatherDisplay:10.37,2013-03-04 20:55:00,
2013-03-04 14:00:00,73.8,32.5,31.89,East,90,31.1,31.1,22,0.00,,SKC,0.00,WeatherDisplay:10.37,2013-03-04 21:00:00,
2013-03-04 14:05:00,74.3,31.8,31.89,East,90,38.0,38.0,21,0.00,,SKC,0.00,WeatherDisplay:10.37,2013-03-04 21:05:00,
2013-03-04 14:10:00,73.8,32.5,31.90,ENE,68,31.1,31.1,22,0.00,,SKC,0.00,WeatherDisplay:10.37,2013-03-04 21:10:00,
2013-03-04 14:15:00,72.9,31.8,31.89,East,90,32.2,32.2,22,0.00,CLR,SKC,0.00,WeatherDisplay:10.37,2013-03-04 21:15:00,
2013-03-04 14:20:00,72.7,31.6,31.90,ESE,112,12.7,12.7,22,0.00,CLR,SKC,0.00,WeatherDisplay:10.37,2013-03-04 21:20:00,
2013-03-04 14:25:00,72.3,32.4,31.89,SE,135,11.5,11.6,23,0.00,CLR,SKC,0.00,WeatherDisplay:10.37,2013-03-04 21:25:00,
2013-03-04 14:30:00,72.5,32.6,31.90,East,90,11.5,11.5,23,0.00,CLR,SKC,0.00,WeatherDisplay:10.37,2013-03-04 21:30:00,
2013-03-04 14:35:00,72.7,32.7,31.89,East,90,13.8,13.8,23,0.00,CLR,SKC,0.00,WeatherDisplay:10.37,2013-03-04 21:35:00,
2013-03-04 14:40:00,72.3,32.4,31.91,ESE,112,11.5,11.5,23,0.00,CLR,SKC,0.00,WeatherDisplay:10.37,2013-03-04 21:40:00,
2013-03-04 14:45:00,73.2,33.2,31.89,SE,135,15.0,15.0,23,0.00,CLR,SKC,0.00,WeatherDisplay:10.37,2013-03-04 21:45:00,
2013-03-04 14:50:00,73.2,33.2,31.90,ESE,112,33.4,33.4,23,0.00,,SKC,0.00,WeatherDisplay:10.37,2013-03-04 21:50:00,
2013-03-04 14:55:00,73.0,33.0,31.89,ESE,112,27.6,27.6,23,0.00,,SKC,0.00,WeatherDisplay:10.37,2013-03-04 21:55:00,
2013-03-04 15:00:00,73.4,33.3,31.89,SSW,202,26.5,26.5,23,0.00,CLR,SKC,0.00,WeatherDisplay:10.37,2013-03-04 22:00:00,
2013-03-04 15:05:00,73.6,33.5,31.91,SE,135,9.2,9.2,23,0.00,CLR,SKC,0.00,WeatherDisplay:10.37,2013-03-04 22:05:00,
2013-03-04 15:10:00,73.9,33.8,31.89,East,90,35.7,35.7,23,0.00,CLR,SKC,0.00,WeatherDisplay:10.37,2013-03-04 22:10:00,
2013-03-04 15:15:00,73.0,34.1,31.92,ESE,112,25.3,25.3,24,0.00,,SKC,0.00,WeatherDisplay:10.37,2013-03-04 22:15:00,
2013-03-04 15:20:00,72.0,33.2,31.89,ESE,112,31.1,31.1,24,0.00,,SKC,0.00,WeatherDisplay:10.37,2013-03-04 22:20:00,
2013-03-04 15:25:00,71.2,33.6,31.92,ESE,112,31.1,31.1,25,0.00,CLR,SKC,0.00,WeatherDisplay:10.37,2013-03-04 22:25:00,
2013-03-04 15:30:00,72.1,33.3,31.92,SE,135,28.8,28.8,24,0.00,CLR,SKC,0.00,WeatherDisplay:10.37,2013-03-04 22:30:00,
2013-03-04 15:35:00,72.3,33.5,31.89,ESE,112,22.6,22.6,24,0.00,,SKC,0.00,WeatherDisplay:10.37,2013-03-04 22:35:00,
2013-03-04 15:40:00,72.7,33.8,31.92,East,90,32.4,32.4,24,0.00,,SKC,0.00,WeatherDisplay:10.37,2013-03-04 22:40:00,
2013-03-04 15:45:00,72.7,33.8,31.92,ESE,112,23.0,23.0,24,0.00,,SKC,0.00,WeatherDisplay:10.37,2013-03-04 22:45:00,
2013-03-04 15:50:00,72.5,33.6,31.93,ESE,112,32.2,32.2,24,0.00,,SKC,0.00,WeatherDisplay:10.37,2013-03-04 22:50:00,
2013-03-04 15:55:00,71.6,32.9,31.89,ESE,112,28.8,28.8,24,0.00,,SKC,0.00,WeatherDisplay:10.37,2013-03-04 22:55:00,
2013-03-04 16:00:00,71.4,32.7,31.93,ESE,112,33.4,33.4,24,0.00,,SKC,0.00,WeatherDisplay:10.37,2013-03-04 23:00:00,
2013-03-04 16:05:00,71.4,32.7,31.93,ESE,112,28.8,28.8,24,0.00,,SKC,0.00,WeatherDisplay:10.37,2013-03-04 23:05:00,
2013-03-04 16:10:00,71.4,32.7,31.89,ESE,112,26.5,26.5,24,0.00,,SKC,0.00,WeatherDisplay:10.37,2013-03-04 23:10:00,
2013-03-04 16:15:00,71.6,32.9,31.93,ESE,112,34.5,34.5,24,0.00,,SKC,0.00,WeatherDisplay:10.37,2013-03-04 23:15:00,
2013-03-04 16:20:00,71.8,33.0,31.93,SE,135,19.6,19.6,24,0.00,,SKC,0.00,WeatherDisplay:10.37,2013-03-04 23:20:00,
2013-03-04 16:25:00,71.8,33.0,31.89,ESE,112,11.6,11.6,24,0.00,CLR,SKC,0.00,WeatherDisplay:10.37,2013-03-04 23:25:00,
2013-03-04 16:30:00,71.4,32.7,31.94,ESE,112,20.7,20.7,24,0.00,CLR,SKC,0.00,WeatherDisplay:10.37,2013-03-04 23:30:00,
2013-03-04 16:35:00,71.2,32.6,31.94,ESE,112,20.3,20.3,24,0.00,CLR,SKC,0.00,WeatherDisplay:10.37,2013-03-04 23:35:00,
2013-03-04 16:40:00,71.2,32.6,31.95,ESE,112,9.4,9.4,24,0.00,CLR,SKC,0.00,WeatherDisplay:10.37,2013-03-04 23:40:00,
2013-03-04 16:45:00,71.2,32.6,31.89,ESE,112,26.5,26.5,24,0.00,CLR,SKC,0.00,WeatherDisplay:10.37,2013-03-04 23:45:00,
2013-03-04 16:50:00,71.1,32.4,31.95,East,90,31.1,31.1,24,0.00,,SKC,0.00,WeatherDisplay:10.37,2013-03-04 23:50:00,
2013-03-04 16:55:00,70.9,32.3,31.95,SE,135,27.6,27.6,24,0.00,CLR,SKC,0.00,WeatherDisplay:10.37,2013-03-04 23:55:00,
2013-03-04 17:00:00,70.5,32.0,31.89,ESE,112,25.3,25.3,24,0.00,CLR,SKC,0.00,WeatherDisplay:10.37,2013-03-05 00:00:00,
2013-03-04 17:05:00,70.5,32.0,31.95,ESE,112,25.3,25.3,24,0.00,CLR,SKC,0.00,WeatherDisplay:10.37,2013-03-05 00:05:00,
2013-03-04 17:10:00,70.7,32.1,31.89,ESE,112,26.5,26.5,24,0.00,,SKC,0.00,WeatherDisplay:10.37,2013-03-05 00:10:00,
2013-03-04 17:15:00,70.5,32.0,31.89,East,90,27.6,27.6,24,0.00,,SKC,0.00,WeatherDisplay:10.37,2013-03-05 00:15:00,
2013-03-04 17:20:00,69.6,31.2,31.89,ESE,112,34.5,34.5,24,0.00,,SKC,0.00,WeatherDisplay:10.37,2013-03-05 00:20:00,
2013-03-04 17:25:00,68.9,30.6,31.95,ENE,68,29.9,29.9,24,0.00,,SKC,0.00,WeatherDisplay:10.37,2013-03-05 00:25:00,
2013-03-04 17:30:00,68.5,31.3,31.89,ESE,112,23.0,23.0,25,0.00,CLR,SKC,0.00,WeatherDisplay:10.37,2013-03-05 00:30:00,
2013-03-04 17:35:00,68.5,31.3,31.96,ESE,112,21.9,21.9,25,0.00,CLR,SKC,0.00,WeatherDisplay:10.37,2013-03-05 00:35:00,
2013-03-04 17:40:00,68.5,31.3,31.97,SE,135,22.6,22.6,25,0.00,CLR,SKC,0.00,WeatherDisplay:10.37,2013-03-05 00:40:00,
2013-03-04 17:45:00,67.8,30.7,31.96,East,90,27.6,27.6,25,0.00,,SKC,0.00,WeatherDisplay:10.37,2013-03-05 00:45:00,
2013-03-04 17:50:00,66.7,29.8,31.97,ESE,112,26.8,26.8,25,0.00,CLR,SKC,0.00,WeatherDisplay:10.37,2013-03-05 00:50:00,
2013-03-04 17:55:00,66.7,28.8,31.97,ESE,112,19.6,19.6,24,0.00,CLR,SKC,0.00,WeatherDisplay:10.37,2013-03-05 00:55:00,
2013-03-04 18:00:00,66.6,28.6,31.97,East,90,25.3,25.3,24,0.00,CLR,SKC,0.00,WeatherDisplay:10.37,2013-03-05 01:00:00,
2013-03-04 18:05:00,66.4,28.5,31.89,ESE,112,10.4,10.4,24,0.00,CLR,SKC,0.00,WeatherDisplay:10.37,2013-03-05 01:05:00,
2013-03-04 18:10:00,66.0,28.2,31.89,East,90,16.1,16.1,24,0.00,CLR,SKC,0.00,WeatherDisplay:10.37,2013-03-05 01:10:00,
2013-03-04 18:15:00,65.1,27.4,31.97,East,90,20.7,20.7,24,0.00,CLR,SKC,0.00,WeatherDisplay:10.37,2013-03-05 01:15:00,
2013-03-04 18:20:00,64.6,27.9,31.97,ESE,112,23.2,23.2,25,0.00,CLR,SKC,0.00,WeatherDisplay:10.37,2013-03-05 01:20:00,
2013-03-04 18:25:00,63.7,27.2,31.89,ESE,112,19.6,19.6,25,0.00,CLR,SKC,0.00,WeatherDisplay:10.37,2013-03-05 01:25:00,
2013-03-04 18:30:00,63.1,26.7,31.97,ESE,112,16.3,16.3,25,0.00,CLR,SKC,0.00,WeatherDisplay:10.37,2013-03-05 01:30:00,
2013-03-04 18:35:00,62.8,26.4,31.89,SE,135,8.1,8.1,25,0.00,CLR,SKC,0.00,WeatherDisplay:10.37,2013-03-05 01:35:00,
2013-03-04 18:40:00,62.4,26.1,31.98,East,90,8.1,8.1,25,0.00,CLR,SKC,0.00,WeatherDisplay:10.37,2013-03-05 01:40:00,
2013-03-04 18:45:00,62.1,25.8,31.99,ESE,112,8.1,8.1,25,0.00,CLR,SKC,0.00,WeatherDisplay:10.37,2013-03-05 01:45:00,
2013-03-04 18:50:00,61.5,25.3,31.99,ESE,112,9.2,9.2,25,0.00,CLR,SKC,0.00,WeatherDisplay:10.37,2013-03-05 01:50:00,
2013-03-04 18:55:00,61.2,26.0,31.98,East,90,8.1,8.1,26,0.00,CLR,SKC,0.00,WeatherDisplay:10.37,2013-03-05 01:55:00,
2013-03-04 19:00:00,61.0,25.8,31.99,ESE,112,6.9,6.9,26,0.00,CLR,SKC,0.00,WeatherDisplay:10.37,2013-03-05 02:00:00,
2013-03-04 19:05:00,60.4,25.4,32.00,SE,135,1.2,1.2,26,0.00,CLR,SKC,0.00,WeatherDisplay:10.37,2013-03-05 02:05:00,
2013-03-04 19:10:00,60.1,25.0,32.00,SE,135,0.0,0.1,26,0.00,CLR,SKC,0.00,WeatherDisplay:10.37,2013-03-05 02:10:00,
2013-03-04 19:15:00,59.7,24.7,32.00,ESE,112,1.2,1.2,26,0.00,CLR,SKC,0.00,WeatherDisplay:10.37,2013-03-05 02:15:00,
2013-03-04 19:20:00,59.4,24.4,32.00,SE,135,0.0,0.0,26,0.00,CLR,SKC,0.00,WeatherDisplay:10.37,2013-03-05 02:20:00,
2013-03-04 19:25:00,58.8,24.0,32.00,SE,135,0.0,0.0,26,0.00,CLR,SKC,0.00,WeatherDisplay:10.37,2013-03-05 02:25:00,
2013-03-04 19:30:00,58.8,24.0,32.01,SE,135,0.0,0.0,26,0.00,CLR,SKC,0.00,WeatherDisplay:10.37,2013-03-05 02:30:00,
2013-03-04 19:35:00,58.5,23.7,32.01,SE,135,0.0,0.0,26,0.00,CLR,SKC,0.00,WeatherDisplay:10.37,2013-03-05 02:35:00,
2013-03-04 19:40:00,57.9,24.1,32.01,SE,135,0.0,0.0,27,0.00,CLR,SKC,0.00,WeatherDisplay:10.37,2013-03-05 02:40:00,
2013-03-04 19:45:00,57.6,23.8,32.01,SE,135,0.0,0.0,27,0.00,CLR,SKC,0.00,WeatherDisplay:10.37,2013-03-05 02:45:00,
2013-03-04 19:50:00,57.2,23.5,32.02,SE,135,0.0,0.0,27,0.00,CLR,SKC,0.00,WeatherDisplay:10.37,2013-03-05 02:50:00,
2013-03-04 19:55:00,56.5,22.9,32.02,SE,135,0.0,0.0,27,0.00,CLR,SKC,0.00,WeatherDisplay:10.37,2013-03-05 02:55:00,
2013-03-04 20:00:00,55.8,23.1,32.03,North,0,4.6,4.6,28,0.00,CLR,SKC,0.00,WeatherDisplay:10.37,2013-03-05 03:00:00,
2013-03-04 20:05:00,55.2,22.6,32.02,NNE,22,4.6,4.6,28,0.00,CLR,SKC,0.00,WeatherDisplay:10.37,2013-03-05 03:05:00,
2013-03-04 20:10:00,55.0,23.3,31.89,NNE,22,0.0,0.0,29,0.00,CLR,SKC,0.00,WeatherDisplay:10.37,2013-03-05 03:10:00,
2013-03-04 20:15:00,54.7,23.0,32.03,NNE,22,0.0,0.0,29,0.00,CLR,SKC,0.00,WeatherDisplay:10.37,2013-03-05 03:15:00,
2013-03-04 20:20:00,54.5,22.9,32.03,NNE,22,0.0,0.0,29,0.00,CLR,SKC,0.00,WeatherDisplay:10.37,2013-03-05 03:20:00,
2013-03-04 20:25:00,54.3,22.7,32.04,NNE,22,0.0,0.0,29,0.00,CLR,SKC,0.00,WeatherDisplay:10.37,2013-03-05 03:25:00,
2013-03-04 20:30:00,53.8,22.2,32.04,NNE,22,0.0,0.0,29,0.00,CLR,SKC,0.00,WeatherDisplay:10.37,2013-03-05 03:30:00,
2013-03-04 20:35:00,53.8,22.2,31.89,NNE,22,0.0,0.0,29,0.00,CLR,SKC,0.00,WeatherDisplay:10.37,2013-03-05 03:35:00,
2013-03-04 20:40:00,53.4,22.7,32.05,NNE,22,0.0,0.0,30,0.00,CLR,SKC,0.00,WeatherDisplay:10.37,2013-03-05 03:40:00,
2013-03-04 20:45:00,53.2,22.6,32.05,NNE,22,0.0,0.0,30,0.00,CLR,SKC,0.00,WeatherDisplay:10.37,2013-03-05 03:45:00,
2013-03-04 20:50:00,52.9,22.2,32.05,NNE,22,0.0,0.0,30,0.00,CLR,SKC,0.00,WeatherDisplay:10.37,2013-03-05 03:50:00,
2013-03-04 20:55:00,52.5,21.9,32.05,NNE,22,0.0,0.0,30,0.00,CLR,SKC,0.00,WeatherDisplay:10.37,2013-03-05 03:55:00,
2013-03-04 21:00:00,52.2,21.6,32.05,NNE,22,0.0,0.0,30,0.00,CLR,SKC,0.00,WeatherDisplay:10.37,2013-03-05 04:00:00,
2013-03-04 21:05:00,51.6,21.2,32.06,NNE,22,0.0,0.0,30,0.00,CLR,SKC,0.00,WeatherDisplay:10.37,2013-03-05 04:05:00,
2013-03-04 21:10:00,51.6,21.2,31.89,NNE,22,0.0,0.0,30,0.00,CLR,SKC,0.00,WeatherDisplay:10.37,2013-03-05 04:10:00,
2013-03-04 21:15:00,51.4,21.8,32.06,NNE,22,0.0,0.0,31,0.00,CLR,SKC,0.00,WeatherDisplay:10.37,2013-03-05 04:15:00,
2013-03-04 21:20:00,51.3,21.6,32.06,NNE,22,0.0,0.0,31,0.00,CLR,SKC,0.00,WeatherDisplay:10.37,2013-03-05 04:20:00,
2013-03-04 21:25:00,51.1,21.5,32.06,NNE,22,0.0,0.0,31,0.00,CLR,SKC,0.00,WeatherDisplay:10.37,2013-03-05 04:25:00,
2013-03-04 21:30:00,50.9,22.1,32.06,NNE,22,0.0,0.0,32,0.00,CLR,SKC,0.00,WeatherDisplay:10.37,2013-03-05 04:30:00,
2013-03-04 21:35:00,50.7,21.9,31.89,NNE,22,0.0,0.0,32,0.00,CLR,SKC,0.00,WeatherDisplay:10.37,2013-03-05 04:35:00,
2013-03-04 21:40:00,50.5,21.7,32.06,NNE,22,0.0,0.0,32,0.00,CLR,SKC,0.00,WeatherDisplay:10.37,2013-03-05 04:40:00,
2013-03-04 21:45:00,50.4,21.6,32.06,SW,225,0.0,0.0,32,0.00,CLR,SKC,0.00,WeatherDisplay:10.37,2013-03-05 04:45:00,
2013-03-04 21:50:00,50.2,21.4,31.89,South,180,0.0,0.0,32,0.00,CLR,SKC,0.00,WeatherDisplay:10.37,2013-03-05 04:50:00,
2013-03-04 21:55:00,50.0,22.0,32.06,South,180,0.0,0.0,33,0.00,CLR,SKC,0.00,WeatherDisplay:10.37,2013-03-05 04:55:00,
2013-03-04 22:00:00,50.0,22.0,32.06,South,180,0.0,0.0,33,0.00,CLR,SKC,0.00,WeatherDisplay:10.37,2013-03-05 05:00:00,
2013-03-04 22:05:00,50.2,22.1,32.06,South,180,0.0,0.0,33,0.00,CLR,SKC,0.00,WeatherDisplay:10.37,2013-03-05 05:05:00,
2013-03-04 22:10:00,49.8,21.8,32.07,WSW,248,0.0,0.0,33,0.00,CLR,SKC,0.00,WeatherDisplay:10.37,2013-03-05 05:10:00,
2013-03-04 22:15:00,48.7,20.9,31.89,West,270,0.0,0.0,33,0.00,CLR,SKC,0.00,WeatherDisplay:10.37,2013-03-05 05:15:00,
2013-03-04 22:20:00,48.2,21.1,32.07,West,270,0.0,0.0,34,0.00,CLR,SKC,0.00,WeatherDisplay:10.37,2013-03-05 05:20:00,
2013-03-04 22:25:00,48.0,20.9,32.07,West,270,0.0,0.0,34,0.00,CLR,SKC,0.00,WeatherDisplay:10.37,2013-03-05 05:25:00,
2013-03-04 22:30:00,48.0,21.6,32.08,West,270,1.2,1.2,35,0.00,CLR,SKC,0.00,WeatherDisplay:10.37,2013-03-05 05:30:00,
2013-03-04 22:35:00,48.0,22.3,32.08,West,270,0.0,0.0,36,0.00,CLR,SKC,0.00,WeatherDisplay:10.37,2013-03-05 05:35:00,
2013-03-04 22:40:00,48.0,22.3,31.89,WNW,292,0.0,0.0,36,0.00,CLR,SKC,0.00,WeatherDisplay:10.37,2013-03-05 05:40:00,
2013-03-04 22:45:00,47.5,21.2,32.08,WNW,292,0.0,0.0,35,0.00,CLR,SKC,0.00,WeatherDisplay:10.37,2013-03-05 05:45:00,
2013-03-04 22:50:00,46.8,21.2,32.08,WNW,292,0.0,0.0,36,0.00,CLR,SKC,0.00,WeatherDisplay:10.37,2013-03-05 05:50:00,
2013-03-04 22:55:00,46.2,20.7,32.08,WNW,292,0.0,0.0,36,0.00,CLR,SKC,0.00,WeatherDisplay:10.37,2013-03-05 05:55:00,
2013-03-04 23:00:00,46.0,20.5,31.89,WNW,292,0.0,0.0,36,0.00,CLR,SKC,0.00,WeatherDisplay:10.37,2013-03-05 06:00:00,
2013-03-04 23:05:00,45.7,20.2,32.07,WNW,292,0.0,0.0,36,0.00,CLR,SKC,0.00,WeatherDisplay:10.37,2013-03-05 06:05:00,
2013-03-04 23:10:00,45.5,20.7,32.07,WNW,292,0.0,0.0,37,0.00,CLR,SKC,0.00,WeatherDisplay:10.37,2013-03-05 06:10:00,
2013-03-04 23:15:00,45.0,20.2,32.08,WNW,292,0.0,0.0,37,0.00,CLR,SKC,0.00,WeatherDisplay:10.37,2013-03-05 06:15:00,
2013-03-04 23:20:00,44.8,20.1,32.08,WNW,292,0.0,0.0,37,0.00,CLR,SKC,0.00,WeatherDisplay:10.37,2013-03-05 06:20:00,
2013-03-04 23:25:00,44.4,20.4,32.08,WNW,292,0.0,0.0,38,0.00,CLR,SKC,0.00,WeatherDisplay:10.37,2013-03-05 06:25:00,
2013-03-04 23:30:00,44.4,20.4,31.89,WNW,292,0.0,0.0,38,0.00,CLR,SKC,0.00,WeatherDisplay:10.37,2013-03-05 06:30:00,
2013-03-04 23:35:00,44.4,21.0,31.89,WNW,292,0.0,0.0,39,0.00,CLR,SKC,0.00,WeatherDisplay:10.37,2013-03-05 06:35:00,
2013-03-04 23:40:00,44.4,21.6,32.07,WNW,292,1.2,1.2,40,0.00,CLR,SKC,0.00,WeatherDisplay:10.37,2013-03-05 06:40:00,
2013-03-04 23:45:00,43.2,19.8,32.08,WNW,292,0.0,0.0,39,0.00,CLR,SKC,0.00,WeatherDisplay:10.37,2013-03-05 06:45:00,
2013-03-04 23:50:00,42.4,19.8,31.89,WNW,292,0.0,0.0,40,0.00,CLR,SKC,0.00,WeatherDisplay:10.37,2013-03-05 06:50:00,
2013-03-04 23:55:00,42.3,19.6,31.89,WNW,292,0.0,0.0,40,0.00,CLR,SKC,0.00,WeatherDisplay:10.37,2013-03-05 06:55:00,